createdAt,value
2022-10-04T00:01:54.162Z,13.88
2022-10-04T00:04:29.019Z,13.65
2022-10-04T00:07:14.428Z,13.63
2022-10-04T00:09:57.609Z,13.68
2022-10-04T00:12:50.258Z,13.48
2022-10-04T00:15:34.995Z,13.54
2022-10-04T00:18:43.491Z,13.55
2022-10-04T00:21:11.139Z,13.61
2022-10-04T00:23:38.578Z,13.35
2022-10-04T00:26:22.802Z,13.35
2022-10-04T00:28:51.037Z,13.39
2022-10-04T00:31:24.880Z,13.41
2022-10-04T00:34:18.001Z,13.36
2022-10-04T00:36:55.392Z,13.40
2022-10-04T00:39:35.025Z,13.22
2022-10-04T00:42:20.243Z,13.21
2022-10-04T00:45:08.424Z,13.28
2022-10-04T00:47:59.048Z,13.19
2022-10-04T00:50:36.216Z,13.48
2022-10-04T00:53:27.186Z,13.47
2022-10-04T00:55:59.549Z,13.36
2022-10-04T00:58:39.092Z,13.44
2022-10-04T01:01:07.093Z,13.55
2022-10-04T01:03:41.496Z,13.49
2022-10-04T01:06:11.589Z,13.53
2022-10-04T01:08:53.082Z,13.47
2022-10-04T01:11:31.587Z,13.43
2022-10-04T01:14:11.726Z,13.32
2022-10-04T01:16:40.164Z,13.50
2022-10-04T01:19:28.626Z,13.57
2022-10-04T01:22:32.608Z,13.57
2022-10-04T01:25:00.489Z,13.43
2022-10-04T01:27:44.621Z,13.35
2022-10-04T01:30:18.266Z,13.25
2022-10-04T01:32:46.046Z,13.12
2022-10-04T01:35:16.333Z,13.12
2022-10-04T01:37:44.029Z,13.31
2022-10-04T01:40:12.261Z,13.20
2022-10-04T01:43:09.010Z,13.14
2022-10-04T01:45:50.703Z,13.44
2022-10-04T01:48:26.265Z,13.28
2022-10-04T01:51:11.612Z,13.33
2022-10-04T01:53:53.611Z,13.01
2022-10-04T01:56:28.129Z,13.00
2022-10-04T01:59:05.405Z,13.01
2022-10-04T02:01:51.228Z,12.89
2022-10-04T02:04:35.978Z,12.92
2022-10-04T02:07:10.490Z,12.86
2022-10-04T02:09:43.779Z,12.94
2022-10-04T02:12:17.500Z,12.90
2022-10-04T02:14:53.204Z,12.81
2022-10-04T02:17:33.131Z,12.68
2022-10-04T02:20:02.702Z,12.76
2022-10-04T02:22:31.395Z,12.96
2022-10-04T02:25:01.845Z,12.98
2022-10-04T02:27:31.420Z,12.93
2022-10-04T02:30:07.805Z,12.93
2022-10-04T02:32:55.083Z,13.11
2022-10-04T02:35:31.029Z,12.68
2022-10-04T02:38:14.415Z,12.76
2022-10-04T02:41:12.668Z,12.89
2022-10-04T02:44:16.324Z,12.81
2022-10-04T02:46:47.833Z,12.98
2022-10-04T02:49:34.816Z,13.02
2022-10-04T02:52:29.310Z,12.90
2022-10-04T02:55:07.033Z,12.81
2022-10-04T02:57:35.931Z,12.93
2022-10-04T03:00:20.671Z,12.71
2022-10-04T03:03:21.566Z,12.88
2022-10-04T03:06:04.480Z,12.72
2022-10-04T03:08:37.426Z,12.60
2022-10-04T03:11:06.237Z,12.67
2022-10-04T03:13:34.687Z,12.66
2022-10-04T03:16:02.449Z,12.44
2022-10-04T03:18:32.339Z,12.56
2022-10-04T03:21:06.691Z,12.64
2022-10-04T03:23:35.439Z,12.68
2022-10-04T03:26:16.723Z,12.78
2022-10-04T03:28:46.001Z,12.65
2022-10-04T03:31:15.422Z,12.57
2022-10-04T03:33:45.312Z,12.50
2022-10-04T03:36:17.936Z,12.48
2022-10-04T03:38:48.808Z,12.38
2022-10-04T03:41:16.985Z,12.42
2022-10-04T03:43:50.289Z,12.54
2022-10-04T03:46:20.180Z,12.23
2022-10-04T03:48:52.960Z,12.18
2022-10-04T03:51:26.512Z,12.25
2022-10-04T03:53:59.880Z,12.54
2022-10-04T03:56:30.116Z,12.49
2022-10-04T03:58:58.748Z,12.42
2022-10-04T04:01:41.561Z,12.34
2022-10-04T04:04:53.590Z,12.26
2022-10-04T04:07:28.517Z,12.08
2022-10-04T04:10:07.548Z,12.61
2022-10-04T04:12:56.316Z,12.22
2022-10-04T04:15:30.519Z,12.33
2022-10-04T04:18:06.314Z,12.19
2022-10-04T04:20:38.996Z,12.27
2022-10-04T04:23:32.154Z,12.36
2022-10-04T04:26:41.102Z,12.36
2022-10-04T04:29:14.480Z,12.23
2022-10-04T04:31:52.313Z,12.53
2022-10-04T04:34:24.948Z,12.34
2022-10-04T04:37:01.182Z,12.43
2022-10-04T04:39:41.282Z,12.73
2022-10-04T04:42:15.532Z,12.47
2022-10-04T04:44:58.828Z,12.58
2022-10-04T04:47:40.780Z,12.80
2022-10-04T04:50:18.601Z,12.53
2022-10-04T04:53:10.126Z,12.57
2022-10-04T04:56:02.967Z,12.67
2022-10-04T04:58:38.168Z,12.54
2022-10-04T05:01:28.929Z,12.62
2022-10-04T05:04:05.946Z,12.72
2022-10-04T05:06:38.647Z,12.75
2022-10-04T05:09:14.709Z,12.78
2022-10-04T05:11:42.396Z,12.90
2022-10-04T05:14:14.314Z,12.86
2022-10-04T05:16:54.261Z,12.97
2022-10-04T05:19:32.582Z,12.97
2022-10-04T05:22:07.702Z,13.09
2022-10-04T05:24:44.457Z,13.12
2022-10-04T05:27:35.035Z,13.29
2022-10-04T05:30:16.543Z,13.11
2022-10-04T05:33:14.610Z,13.30
2022-10-04T05:36:02.808Z,13.58
2022-10-04T05:39:03.317Z,13.89
2022-10-04T05:41:40.623Z,13.91
2022-10-04T05:44:32.064Z,13.89
2022-10-04T05:47:07.092Z,14.31
2022-10-04T05:49:46.573Z,14.32
2022-10-04T05:52:33.332Z,14.80
2022-10-04T05:55:27.403Z,14.82
2022-10-04T05:58:31.902Z,15.01
2022-10-04T06:02:14.842Z,15.12
2022-10-04T06:04:58.711Z,15.39
2022-10-04T06:07:42.892Z,15.55
2022-10-04T06:10:52.950Z,15.74
2022-10-04T06:13:52.147Z,15.72
2022-10-04T06:16:49.573Z,15.76
2022-10-04T06:19:45.052Z,15.70
2022-10-04T06:22:26.898Z,15.99
2022-10-04T06:24:57.700Z,16.12
2022-10-04T06:27:36.063Z,15.95
2022-10-04T06:30:15.037Z,15.99
2022-10-04T06:33:29.376Z,16.07
2022-10-04T06:36:16.491Z,16.19
2022-10-04T06:39:08.405Z,16.31
2022-10-04T06:42:16.807Z,16.47
2022-10-04T06:45:31.240Z,16.73
2022-10-04T06:48:29.016Z,16.71
2022-10-04T06:51:02.616Z,17.15
2022-10-04T06:53:54.835Z,16.93
2022-10-04T06:56:44.982Z,17.18
2022-10-04T06:59:56.577Z,17.07
2022-10-04T07:02:34.703Z,17.22
2022-10-04T07:05:21.731Z,17.55
2022-10-04T07:08:31.135Z,17.77
2022-10-04T07:11:23.390Z,17.78
2022-10-04T07:13:59.500Z,17.81
2022-10-04T07:16:35.389Z,17.76
2022-10-04T07:19:25.228Z,17.77
2022-10-04T07:22:08.051Z,17.77
2022-10-04T07:25:16.689Z,17.95
2022-10-04T07:28:35.437Z,18.09
2022-10-04T07:31:20.674Z,18.17
2022-10-04T07:33:56.301Z,18.39
2022-10-04T07:36:57.124Z,18.52
2022-10-04T07:39:48.444Z,18.60
2022-10-04T07:42:27.927Z,18.72
2022-10-04T07:45:15.391Z,19.11
2022-10-04T07:47:43.259Z,19.04
2022-10-04T07:50:25.005Z,18.77
2022-10-04T07:53:08.643Z,18.57
2022-10-04T07:56:03.549Z,18.79
2022-10-04T07:59:13.740Z,18.69
2022-10-04T08:02:31.411Z,18.54
2022-10-04T08:05:20.381Z,19.42
2022-10-04T08:08:13.811Z,19.04
2022-10-04T08:11:19.924Z,18.62
2022-10-04T08:14:05.131Z,18.75
2022-10-04T08:16:58.532Z,19.01
2022-10-04T08:19:50.464Z,19.26
2022-10-04T08:22:58.586Z,19.42
2022-10-04T08:26:01.377Z,19.85
2022-10-04T08:29:02.370Z,20.16
2022-10-04T08:32:05.624Z,20.13
2022-10-04T08:35:19.577Z,20.00
2022-10-04T08:38:09.737Z,20.03
2022-10-04T08:41:26.289Z,20.23
2022-10-04T08:44:29.214Z,20.39
2022-10-04T08:47:29.430Z,20.51
2022-10-04T08:50:26.079Z,20.65
2022-10-04T08:53:47.525Z,20.65
2022-10-04T08:56:49.392Z,20.73
2022-10-04T08:59:19.762Z,21.11
2022-10-04T09:02:48.451Z,21.11
2022-10-04T09:05:36.882Z,21.39
2022-10-04T09:08:40.659Z,21.69
2022-10-04T09:11:36.136Z,21.18
2022-10-04T09:15:14.542Z,21.25
2022-10-04T09:18:11.934Z,21.22
2022-10-04T09:21:25.645Z,21.36
2022-10-04T09:34:38.862Z,22.09
2022-10-04T09:37:23.921Z,22.30
2022-10-04T09:40:28.723Z,22.60
2022-10-04T09:43:29.507Z,22.72
2022-10-04T09:46:28.576Z,23.05
2022-10-04T09:49:32.720Z,22.64
2022-10-04T09:52:15.478Z,22.57
2022-10-04T09:54:56.858Z,22.33
2022-10-04T09:58:04.163Z,21.89
2022-10-04T10:00:50.141Z,21.85
2022-10-04T10:03:41.968Z,22.15
2022-10-04T10:06:52.283Z,22.37
2022-10-04T10:10:04.413Z,22.73
2022-10-04T10:13:28.859Z,23.20
2022-10-04T10:16:08.125Z,23.16
2022-10-04T10:19:13.126Z,23.01
2022-10-04T10:22:11.371Z,23.38
2022-10-04T10:25:03.845Z,23.51
2022-10-04T10:28:15.224Z,23.22
2022-10-04T10:31:21.838Z,22.85
2022-10-04T10:34:46.767Z,22.22
2022-10-04T10:37:47.317Z,21.75
2022-10-04T10:40:16.685Z,22.08
2022-10-04T10:43:04.749Z,22.46
2022-10-04T10:45:45.887Z,22.90
2022-10-04T10:48:43.961Z,22.88
2022-10-04T10:51:20.730Z,22.32
2022-10-04T10:54:14.221Z,22.02
2022-10-04T10:57:10.180Z,21.56
2022-10-04T11:00:14.229Z,21.24
2022-10-04T11:03:13.131Z,21.65
2022-10-04T11:06:08.598Z,22.35
2022-10-04T11:09:19.725Z,22.42
2022-10-04T11:12:26.911Z,22.80
2022-10-04T11:15:03.308Z,23.21
2022-10-04T11:18:17.912Z,23.61
2022-10-04T11:20:48.104Z,23.31
2022-10-04T11:23:51.978Z,22.89
2022-10-04T11:26:54.500Z,22.93
2022-10-04T11:30:09.819Z,23.23
2022-10-04T11:32:59.595Z,23.81
2022-10-04T11:36:08.225Z,24.42
2022-10-04T11:39:03.683Z,24.57
2022-10-04T11:41:50.346Z,24.48
2022-10-04T11:44:31.093Z,25.26
2022-10-04T11:47:28.970Z,25.44
2022-10-04T11:50:03.904Z,25.23
2022-10-04T11:53:39.492Z,24.46
2022-10-04T11:56:25.215Z,23.67
2022-10-04T11:59:12.526Z,24.03
2022-10-04T12:02:21.472Z,24.35
2022-10-04T12:05:28.516Z,24.30
2022-10-04T12:08:27.684Z,23.38
2022-10-04T12:11:25.724Z,22.60
2022-10-04T12:14:33.253Z,22.27
2022-10-04T12:17:44.458Z,22.23
2022-10-04T12:20:43.248Z,22.22
2022-10-04T12:24:06.372Z,22.28
2022-10-04T12:27:03.926Z,22.24
2022-10-04T12:30:54.309Z,22.04
2022-10-04T12:33:31.997Z,21.90
2022-10-04T12:36:34.624Z,21.56
2022-10-04T12:39:20.652Z,21.43
2022-10-04T12:42:48.671Z,21.60
2022-10-04T12:45:49.906Z,21.76
2022-10-04T12:48:26.435Z,22.77
2022-10-04T12:51:14.849Z,24.04
2022-10-04T12:54:10.757Z,24.90
2022-10-04T12:57:10.356Z,25.37
2022-10-04T13:00:14.395Z,26.30
2022-10-04T13:03:18.994Z,26.92
2022-10-04T13:06:19.648Z,26.17
2022-10-04T13:09:10.346Z,24.93
2022-10-04T13:12:02.349Z,24.15
2022-10-04T13:15:23.752Z,23.71
2022-10-04T13:18:18.146Z,23.47
2022-10-04T13:20:57.702Z,24.93
2022-10-04T13:23:45.910Z,26.62
2022-10-04T13:26:44.546Z,27.39
2022-10-04T13:29:30.265Z,27.73
2022-10-04T13:32:07.937Z,27.56
2022-10-04T13:34:55.406Z,28.44
2022-10-04T13:38:18.519Z,27.96
2022-10-04T13:41:09.123Z,27.74
2022-10-04T13:44:20.156Z,28.12
2022-10-04T13:47:04.995Z,28.36
2022-10-04T13:50:03.837Z,29.24
2022-10-04T13:53:43.186Z,29.74
2022-10-04T13:56:37.130Z,29.35
2022-10-04T13:59:49.183Z,28.90
2022-10-04T14:03:08.401Z,29.24
2022-10-04T14:08:56.409Z,29.57
2022-10-04T14:12:19.371Z,29.37
2022-10-04T14:15:41.260Z,28.95
2022-10-04T14:18:49.369Z,29.59
2022-10-04T14:22:03.884Z,28.35
2022-10-04T14:24:49.891Z,28.02
2022-10-04T14:27:48.443Z,28.29
2022-10-04T14:30:30.873Z,27.83
2022-10-04T14:33:23.769Z,28.34
2022-10-04T14:36:04.704Z,28.99
2022-10-04T14:39:13.834Z,29.56
2022-10-04T14:42:48.510Z,28.73
2022-10-04T14:45:39.004Z,27.05
2022-10-04T14:48:50.260Z,25.37
2022-10-04T14:51:57.367Z,24.26
2022-10-04T14:54:29.197Z,23.49
2022-10-04T14:57:22.887Z,23.17
2022-10-04T15:00:16.302Z,22.95
2022-10-04T15:03:30.966Z,22.57
2022-10-04T15:06:49.602Z,22.33
2022-10-04T15:09:52.475Z,22.10
2022-10-04T15:12:58.377Z,21.83
2022-10-04T15:15:21.342Z,21.70
2022-10-04T15:17:51.978Z,21.57
2022-10-04T15:20:40.658Z,21.41
2022-10-04T15:23:13.566Z,21.21
2022-10-04T15:25:54.522Z,21.04
2022-10-04T15:29:16.000Z,20.92
2022-10-04T15:31:47.215Z,20.86
2022-10-04T15:34:39.296Z,20.73
2022-10-04T15:37:27.885Z,20.44
2022-10-04T15:40:16.690Z,20.61
2022-10-04T15:43:10.737Z,20.54
2022-10-04T15:46:03.459Z,20.35
2022-10-04T15:49:25.020Z,20.21
2022-10-04T15:52:26.929Z,20.12
2022-10-04T15:55:53.033Z,19.97
2022-10-04T15:58:54.703Z,19.99
2022-10-04T16:02:10.114Z,19.67
2022-10-04T16:05:25.716Z,19.23
2022-10-04T16:08:16.426Z,19.18
2022-10-04T16:11:30.668Z,19.12
2022-10-04T16:14:06.991Z,19.12
2022-10-04T16:16:39.946Z,18.99
2022-10-04T16:20:07.732Z,18.82
2022-10-04T16:22:40.057Z,18.76
2022-10-04T16:25:26.654Z,18.60
2022-10-04T16:28:00.333Z,18.52
2022-10-04T16:30:38.692Z,18.25
2022-10-04T16:33:39.453Z,18.06
2022-10-04T16:36:34.758Z,17.87
2022-10-04T16:39:23.026Z,17.97
2022-10-04T16:42:02.744Z,18.05
2022-10-04T16:44:53.984Z,17.91
2022-10-04T16:47:48.484Z,17.94
2022-10-04T16:51:21.882Z,17.82
2022-10-04T16:54:04.953Z,17.71
2022-10-04T16:57:00.410Z,17.52
2022-10-04T17:00:00.862Z,17.49
2022-10-04T17:03:07.164Z,17.53
2022-10-04T17:06:19.085Z,17.45
2022-10-04T17:09:31.027Z,17.33
2022-10-04T17:12:06.709Z,17.29
2022-10-04T17:14:43.707Z,17.23
2022-10-04T17:17:45.791Z,17.26
2022-10-04T17:20:23.365Z,17.14
2022-10-04T17:23:12.854Z,17.14
2022-10-04T17:26:14.366Z,16.97
2022-10-04T17:29:04.572Z,16.95
2022-10-04T17:31:47.838Z,17.08
2022-10-04T17:34:34.098Z,17.01
2022-10-04T17:37:38.003Z,16.92
2022-10-04T17:40:17.466Z,16.94
2022-10-04T17:43:35.629Z,16.93
2022-10-04T17:46:12.568Z,16.84
2022-10-04T17:49:15.647Z,16.86
2022-10-04T17:52:24.341Z,16.92
2022-10-04T17:55:15.988Z,16.89
2022-10-04T17:58:13.328Z,16.97
2022-10-04T18:01:08.086Z,16.87
2022-10-04T18:04:18.313Z,16.84
2022-10-04T18:07:09.933Z,16.90
2022-10-04T18:09:52.973Z,17.60
2022-10-04T18:12:45.550Z,17.35
2022-10-04T18:15:41.947Z,16.62
2022-10-04T18:18:19.154Z,16.09
2022-10-04T18:21:07.681Z,15.93
2022-10-04T18:23:42.673Z,15.80
2022-10-04T18:26:19.067Z,16.05
2022-10-04T18:28:48.972Z,15.89
2022-10-04T18:31:42.746Z,16.03
2022-10-04T18:34:32.201Z,15.94
2022-10-04T18:37:40.871Z,15.88
2022-10-04T18:40:29.137Z,15.98
2022-10-04T18:43:01.995Z,16.52
2022-10-04T18:45:39.233Z,16.31
2022-10-04T18:48:18.871Z,15.93
2022-10-04T18:50:48.551Z,15.58
2022-10-04T18:53:44.193Z,15.46
2022-10-04T18:56:13.866Z,15.48
2022-10-04T18:59:32.027Z,15.23
2022-10-04T19:02:34.884Z,15.16
2022-10-04T19:05:42.317Z,15.11
2022-10-04T19:08:40.374Z,15.11
2022-10-04T19:11:22.437Z,15.13
2022-10-04T19:14:23.358Z,15.10
2022-10-04T19:17:47.959Z,15.31
2022-10-04T19:20:36.312Z,15.51
2022-10-04T19:23:34.976Z,15.35
2022-10-04T19:26:31.650Z,15.42
2022-10-04T19:29:50.472Z,15.26
2022-10-04T19:33:02.030Z,15.03
2022-10-04T19:35:50.436Z,15.25
2022-10-04T19:38:53.584Z,15.08
2022-10-04T19:41:45.555Z,14.98
2022-10-04T19:44:37.617Z,14.99
2022-10-04T19:47:45.149Z,14.85
2022-10-04T19:50:45.234Z,14.82
2022-10-04T19:53:37.060Z,14.83
2022-10-04T19:56:18.387Z,14.82
2022-10-04T19:59:33.668Z,14.75
2022-10-04T20:02:01.393Z,14.66
2022-10-04T20:04:35.058Z,14.59
2022-10-04T20:07:18.331Z,14.73
2022-10-04T20:09:52.802Z,15.00
2022-10-04T20:12:42.002Z,15.00
2022-10-04T20:15:27.495Z,14.93
2022-10-04T20:17:56.653Z,15.10
2022-10-04T20:20:39.257Z,14.99
2022-10-04T20:23:08.757Z,14.93
2022-10-04T20:25:49.287Z,14.77
2022-10-04T20:28:40.310Z,14.54
2022-10-04T20:31:50.863Z,14.51
2022-10-04T20:34:38.676Z,14.42
2022-10-04T20:37:09.177Z,14.30
2022-10-04T20:39:43.316Z,14.36
2022-10-04T20:42:38.910Z,14.51
2022-10-04T20:45:13.192Z,14.51
2022-10-04T20:47:48.321Z,14.41
2022-10-04T20:50:42.348Z,14.27
2022-10-04T20:53:21.782Z,14.34
2022-10-04T20:55:54.203Z,14.47
2022-10-04T20:58:35.937Z,14.37
2022-10-04T21:01:37.864Z,14.35
2022-10-04T21:04:42.893Z,14.36
2022-10-04T21:07:25.829Z,14.54
2022-10-04T21:10:08.505Z,14.62
2022-10-04T21:12:36.110Z,14.57
2022-10-04T21:15:21.224Z,14.59
2022-10-04T21:18:07.737Z,14.50
2022-10-04T21:20:52.063Z,14.48
2022-10-04T21:23:31.507Z,14.46
2022-10-04T21:26:24.586Z,14.38
2022-10-04T21:28:59.720Z,14.44
2022-10-04T21:31:27.296Z,14.48
2022-10-04T21:33:54.882Z,14.49
2022-10-04T21:36:22.457Z,14.44
2022-10-04T21:38:50.237Z,14.34
2022-10-04T21:41:17.868Z,14.35
2022-10-04T21:43:45.546Z,14.57
2022-10-04T21:46:17.851Z,14.54
2022-10-04T21:48:47.705Z,14.46
2022-10-04T21:51:15.528Z,14.46
2022-10-04T21:53:43.142Z,14.44
2022-10-04T21:56:10.757Z,14.51
2022-10-04T21:58:38.267Z,14.56
2022-10-04T22:01:06.323Z,14.50
2022-10-04T22:03:34.100Z,14.50
2022-10-04T22:06:01.798Z,14.48
2022-10-04T22:08:29.402Z,14.31
2022-10-04T22:10:57.922Z,14.28
2022-10-04T22:13:27.014Z,14.10
2022-10-04T22:15:55.399Z,14.00
2022-10-04T22:18:23.018Z,13.95
2022-10-04T22:20:50.630Z,13.79
2022-10-04T22:23:24.568Z,13.65
2022-10-04T22:25:53.578Z,13.68
2022-10-04T22:28:24.796Z,13.71
2022-10-04T22:30:55.777Z,13.58
2022-10-04T22:33:39.736Z,13.62
2022-10-04T22:36:18.347Z,13.80
2022-10-04T22:39:08.908Z,13.69
2022-10-04T22:41:40.959Z,13.67
2022-10-04T22:44:19.678Z,13.69
2022-10-04T22:46:53.899Z,13.63
2022-10-04T22:49:32.431Z,13.46
2022-10-04T22:52:14.094Z,13.50
2022-10-04T22:54:49.079Z,13.48
2022-10-04T22:57:19.321Z,13.51
2022-10-04T22:59:52.961Z,13.44
2022-10-04T23:02:28.845Z,13.42
2022-10-04T23:05:01.556Z,13.48
2022-10-04T23:07:29.788Z,13.46
2022-10-04T23:09:57.359Z,13.39
2022-10-04T23:12:24.903Z,13.31
2022-10-04T23:14:52.619Z,13.19
2022-10-04T23:17:30.784Z,13.25
2022-10-04T23:20:07.530Z,13.21
2022-10-04T23:22:35.333Z,13.18
2022-10-04T23:25:06.365Z,13.17
2022-10-04T23:27:35.110Z,13.08
2022-10-04T23:30:03.897Z,13.07
2022-10-04T23:32:33.468Z,13.11
2022-10-04T23:35:02.616Z,12.95
2022-10-04T23:37:33.163Z,12.93
2022-10-04T23:40:01.384Z,12.77
2022-10-04T23:42:32.536Z,12.50
2022-10-04T23:45:02.896Z,12.50
2022-10-04T23:47:36.589Z,12.46
2022-10-04T23:50:34.733Z,12.56
2022-10-04T23:53:06.609Z,12.15
2022-10-04T23:55:41.918Z,12.28
2022-10-04T23:58:21.084Z,11.99
